Terminal Aerodrome Forecast
Issued by NWS Sterling, VA

Home | Current Version | Previous Version | Text Only | Print | Product List | Glossary On
Versions: 1 2 3 4 5 6 7 8 9 10 11 12 13 14 15 16 17 18 19 20 21
000
FTUS41 KLWX 190900 AAA
TAFIAD
TAF AMD
KIAD 190910Z 1909/2012 01005KT P6SM SCT050
     FM191100 03005KT P6SM SCT050
     FM191700 09007KT P6SM SCT050
     FM192200 12007KT P6SM FEW025 BKN050
     FM200900 00000KT P6SM SCT025 BKN050=

USA.gov is the U.S. government's official web portal to all federal, state and local government web resources and services.